createdAt,value
2023-05-01T00:02:03.590Z,100871.31
2023-05-01T00:04:30.166Z,100874.00
2023-05-01T00:07:04.594Z,100869.28
2023-05-01T00:09:38.361Z,100869.25
2023-05-01T00:12:05.639Z,100865.19
2023-05-01T00:14:34.979Z,100863.97
2023-05-01T00:17:04.158Z,100861.47
2023-05-01T00:19:30.760Z,100858.44
2023-05-01T00:21:57.278Z,100857.00
2023-05-01T00:24:27.122Z,100842.50
2023-05-01T00:26:56.896Z,100841.69
2023-05-01T00:29:23.468Z,100842.28
2023-05-01T00:31:52.944Z,100847.41
2023-05-01T00:34:32.527Z,100834.75
2023-05-01T00:36:59.361Z,100839.25
2023-05-01T00:39:25.906Z,100835.97
2023-05-01T00:41:52.457Z,100830.66
2023-05-01T00:44:19.103Z,100832.28
2023-05-01T00:46:45.705Z,100834.75
2023-05-01T00:49:19.294Z,100829.88
2023-05-01T00:51:49.639Z,100823.53
2023-05-01T00:54:16.225Z,100829.00
2023-05-01T00:56:43.151Z,100822.66
2023-05-01T00:59:10.983Z,100825.72
2023-05-01T01:01:37.599Z,100830.25
2023-05-01T01:04:09.358Z,100821.47
2023-05-01T01:06:54.868Z,100825.31
2023-05-01T01:09:53.223Z,100817.63
2023-05-01T01:12:27.808Z,100810.03
2023-05-01T01:15:04.358Z,100831.94
2023-05-01T01:17:31.869Z,100830.09
2023-05-01T01:20:22.827Z,100832.31
2023-05-01T01:23:12.796Z,100830.06
2023-05-01T01:26:00.063Z,100832.53
2023-05-01T01:28:39.410Z,100825.38
2023-05-01T01:31:49.771Z,100834.75
2023-05-01T01:34:24.529Z,100839.47
2023-05-01T01:37:03.025Z,100841.34
2023-05-01T01:39:41.437Z,100835.59
2023-05-01T01:42:16.160Z,100835.19
2023-05-01T01:44:54.785Z,100828.25
2023-05-01T01:47:33.384Z,100817.59
2023-05-01T01:50:14.795Z,100822.72
2023-05-01T01:52:51.464Z,100831.13
2023-05-01T01:55:27.168Z,100824.59
2023-05-01T01:58:02.732Z,100817.63
2023-05-01T02:00:38.293Z,100816.19
2023-05-01T02:03:06.167Z,100824.78
2023-05-01T02:05:33.223Z,100819.88
2023-05-01T02:08:00.563Z,100821.31
2023-05-01T02:10:27.880Z,100826.00
2023-05-01T02:12:55.024Z,100831.53
2023-05-01T02:15:22.422Z,100824.97
2023-05-01T02:17:50.399Z,100827.66
2023-05-01T02:20:17.346Z,100828.03
2023-05-01T02:22:47.555Z,100827.84
2023-05-01T02:25:14.436Z,100826.81
2023-05-01T02:27:48.110Z,100825.59
2023-05-01T02:30:14.840Z,100819.25
2023-05-01T02:32:45.287Z,100820.06
2023-05-01T02:35:11.859Z,100820.88
2023-05-01T02:37:40.367Z,100820.06
2023-05-01T02:40:07.204Z,100805.38
2023-05-01T02:42:34.421Z,100814.75
2023-05-01T02:45:08.467Z,100807.59
2023-05-01T02:47:37.478Z,100811.28
2023-05-01T02:50:04.713Z,100808.41
2023-05-01T02:52:31.358Z,100805.34
2023-05-01T02:54:58.500Z,100801.06
2023-05-01T02:57:25.211Z,100810.28
2023-05-01T02:59:51.710Z,100801.47
2023-05-01T03:02:18.477Z,100796.34
2023-05-01T03:04:45.049Z,100792.69
2023-05-01T03:07:11.686Z,100800.47
2023-05-01T03:09:38.239Z,100802.09
2023-05-01T03:12:04.921Z,100809.25
2023-05-01T03:14:31.532Z,100802.91
2023-05-01T03:16:58.093Z,100806.34
2023-05-01T03:19:24.785Z,100800.44
2023-05-01T03:21:51.420Z,100802.28
2023-05-01T03:24:18.102Z,100803.28
2023-05-01T03:26:44.702Z,100799.66
2023-05-01T03:29:13.695Z,100796.16
2023-05-01T03:31:40.329Z,100792.88
2023-05-01T03:34:07.003Z,100797.19
2023-05-01T03:36:33.576Z,100806.16
2023-05-01T03:39:00.136Z,100800.44
2023-05-01T03:41:26.683Z,100799.44
2023-05-01T03:43:53.170Z,100805.97
2023-05-01T03:46:19.855Z,100795.34
2023-05-01T03:48:48.843Z,100795.16
2023-05-01T03:51:15.401Z,100793.69
2023-05-01T03:53:41.893Z,100800.03
2023-05-01T03:56:08.678Z,100798.00
2023-05-01T03:58:35.199Z,100793.72
2023-05-01T04:01:01.694Z,100796.56
2023-05-01T04:03:28.579Z,100795.13
2023-05-01T04:05:55.368Z,100792.44
2023-05-01T04:08:21.924Z,100791.41
2023-05-01T04:10:48.464Z,100788.75
2023-05-01T04:13:14.980Z,100791.81
2023-05-01T04:15:44.391Z,100788.13
2023-05-01T04:18:11.066Z,100785.28
2023-05-01T04:20:39.955Z,100793.63
2023-05-01T04:23:06.509Z,100789.75
2023-05-01T04:25:33.040Z,100790.34
2023-05-01T04:27:59.677Z,100788.94
2023-05-01T04:30:26.185Z,100793.81
2023-05-01T04:32:52.740Z,100800.56
2023-05-01T04:35:19.296Z,100796.66
2023-05-01T04:37:45.805Z,100797.44
2023-05-01T04:40:12.480Z,100797.88
2023-05-01T04:42:38.976Z,100800.19
2023-05-01T04:45:05.759Z,100803.22
2023-05-01T04:47:32.354Z,100802.38
2023-05-01T04:49:58.868Z,100804.81
2023-05-01T04:52:25.698Z,100809.34
2023-05-01T04:54:54.237Z,100798.09
2023-05-01T04:57:20.804Z,100804.66
2023-05-01T04:59:47.347Z,100807.72
2023-05-01T05:02:13.916Z,100822.78
2023-05-01T05:04:40.434Z,100819.97
2023-05-01T05:07:07.084Z,100823.63
2023-05-01T05:09:33.682Z,100817.97
2023-05-01T05:12:00.220Z,100826.91
2023-05-01T05:14:28.276Z,100826.28
2023-05-01T05:16:54.842Z,100837.09
2023-05-01T05:19:21.362Z,100831.00
2023-05-01T05:21:47.906Z,100832.78
2023-05-01T05:24:16.529Z,100827.09
2023-05-01T05:26:43.047Z,100826.28
2023-05-01T05:29:09.624Z,100836.25
2023-05-01T05:31:36.184Z,100838.91
2023-05-01T05:34:02.744Z,100843.59
2023-05-01T05:36:29.557Z,100839.72
2023-05-01T05:38:57.353Z,100827.66
2023-05-01T05:41:23.890Z,100837.50
2023-05-01T05:43:50.452Z,100836.28
2023-05-01T05:46:17.104Z,100845.22
2023-05-01T05:48:43.708Z,100846.31
2023-05-01T05:51:10.182Z,100848.16
2023-05-01T05:53:36.776Z,100848.94
2023-05-01T05:56:03.409Z,100845.06
2023-05-01T05:58:29.903Z,100843.66
2023-05-01T06:00:56.551Z,100849.59
2023-05-01T06:03:23.246Z,100842.03
2023-05-01T06:05:50.099Z,100848.34
2023-05-01T06:08:16.671Z,100851.81
2023-05-01T06:10:43.877Z,100846.97
2023-05-01T06:13:13.475Z,100848.41
2023-05-01T06:15:41.102Z,100844.94
2023-05-01T06:18:08.117Z,100849.00
2023-05-01T06:20:34.771Z,100849.84
2023-05-01T06:23:01.374Z,100860.50
2023-05-01T06:25:27.898Z,100852.53
2023-05-01T06:27:54.444Z,100862.34
2023-05-01T06:30:21.093Z,100857.22
2023-05-01T06:32:47.792Z,100861.94
2023-05-01T06:35:14.618Z,100856.88
2023-05-01T06:37:41.192Z,100856.88
2023-05-01T06:40:10.852Z,100856.25
2023-05-01T06:42:37.879Z,100859.53
2023-05-01T06:45:04.873Z,100862.19
2023-05-01T06:47:31.469Z,100866.66
2023-05-01T06:49:58.242Z,100863.19
2023-05-01T06:52:25.246Z,100867.25
2023-05-01T06:54:51.793Z,100863.38
2023-05-01T06:57:21.494Z,100860.09
2023-05-01T06:59:48.243Z,100862.31
2023-05-01T07:02:19.060Z,100858.81
2023-05-01T07:04:45.637Z,100869.59
2023-05-01T07:07:12.296Z,100864.03
2023-05-01T07:09:38.906Z,100876.97
2023-05-01T07:12:06.228Z,100875.91
2023-05-01T07:14:34.699Z,100870.13
2023-05-01T07:17:01.586Z,100879.66
2023-05-01T07:19:28.229Z,100873.44
2023-05-01T07:21:54.779Z,100880.44
2023-05-01T07:24:21.262Z,100887.81
2023-05-01T07:26:47.807Z,100876.72
2023-05-01T07:29:14.594Z,100884.47
2023-05-01T07:31:41.094Z,100877.44
2023-05-01T07:34:07.683Z,100876.81
2023-05-01T07:36:34.212Z,100876.41
2023-05-01T07:39:00.739Z,100879.94
2023-05-01T07:41:27.323Z,100879.31
2023-05-01T07:43:53.849Z,100881.97
2023-05-01T07:46:20.395Z,100877.41
2023-05-01T07:48:46.972Z,100881.13
2023-05-01T07:51:13.521Z,100871.66
2023-05-01T07:53:40.051Z,100886.44
2023-05-01T07:56:07.761Z,100882.56
2023-05-01T07:58:34.580Z,100884.56
2023-05-01T08:01:01.244Z,100884.63
2023-05-01T08:03:28.628Z,100879.53
2023-05-01T08:05:55.409Z,100883.41
2023-05-01T08:08:25.926Z,100886.06
2023-05-01T08:10:52.612Z,100888.97
2023-05-01T08:13:19.222Z,100887.44
2023-05-01T08:15:47.166Z,100891.13
2023-05-01T08:18:13.853Z,100881.09
2023-05-01T08:20:40.418Z,100888.31
2023-05-01T08:23:06.910Z,100888.63
2023-05-01T08:25:33.445Z,100883.97
2023-05-01T08:28:00.567Z,100885.50
2023-05-01T08:30:30.113Z,100894.38
2023-05-01T08:32:56.729Z,100884.88
2023-05-01T08:35:23.343Z,100885.63
2023-05-01T08:37:49.898Z,100880.06
2023-05-01T08:40:16.584Z,100882.28
2023-05-01T08:42:43.373Z,100885.16
2023-05-01T08:45:10.524Z,100881.63
2023-05-01T08:47:40.170Z,100885.47
2023-05-01T08:50:10.032Z,100884.81
2023-05-01T08:52:42.501Z,100885.63
2023-05-01T08:55:15.347Z,100880.81
2023-05-01T08:57:45.625Z,100878.88
2023-05-01T09:00:15.667Z,100886.03
2023-05-01T09:02:43.382Z,100888.00
2023-05-01T09:05:10.182Z,100888.69
2023-05-01T09:07:36.967Z,100881.75
2023-05-01T09:10:03.834Z,100887.44
2023-05-01T09:12:31.308Z,100882.53
2023-05-01T09:14:57.872Z,100886.91
2023-05-01T09:17:24.565Z,100887.25
2023-05-01T09:19:51.506Z,100887.34
2023-05-01T09:22:18.274Z,100892.81
2023-05-01T09:24:45.171Z,100890.88
2023-05-01T09:27:12.589Z,100889.44
2023-05-01T09:29:46.288Z,100894.72
2023-05-01T09:32:14.220Z,100899.09
2023-05-01T09:34:40.995Z,100886.59
2023-05-01T09:37:07.575Z,100895.47
2023-05-01T09:39:34.096Z,100889.25
2023-05-01T09:42:00.635Z,100897.38
2023-05-01T09:44:27.500Z,100896.44
2023-05-01T09:47:02.849Z,100892.06
2023-05-01T09:50:00.394Z,100898.31
2023-05-01T09:52:33.270Z,100894.91
2023-05-01T09:55:16.153Z,100893.00
2023-05-01T09:57:44.680Z,100899.03
2023-05-01T10:00:12.036Z,100893.63
2023-05-01T10:02:39.488Z,100897.09
2023-05-01T10:05:11.009Z,100899.63
2023-05-01T10:07:39.213Z,100895.66
2023-05-01T10:10:26.867Z,100899.41
2023-05-01T10:12:54.431Z,100887.53
2023-05-01T10:15:26.077Z,100893.25
2023-05-01T10:17:53.916Z,100892.25
2023-05-01T10:20:23.439Z,100885.28
2023-05-01T10:22:50.033Z,100889.44
2023-05-01T10:25:17.743Z,100874.97
2023-05-01T10:27:44.387Z,100879.38
2023-05-01T10:30:11.236Z,100884.59
2023-05-01T10:32:38.859Z,100875.84
2023-05-01T10:35:11.664Z,100867.25
2023-05-01T10:37:44.660Z,100862.25
2023-05-01T10:40:30.182Z,100869.09
2023-05-01T10:43:16.098Z,100869.53
2023-05-01T10:45:45.986Z,100865.50
2023-05-01T10:48:12.684Z,100871.81
2023-05-01T10:50:57.804Z,100875.41
2023-05-01T10:53:27.476Z,100871.19
2023-05-01T10:55:54.062Z,100872.84
2023-05-01T10:58:50.234Z,100864.16
2023-05-01T11:01:33.275Z,100865.28
2023-05-01T11:04:01.126Z,100865.28
2023-05-01T11:06:31.681Z,100858.06
2023-05-01T11:08:58.400Z,100856.03
2023-05-01T11:11:24.946Z,100856.69
2023-05-01T11:14:10.500Z,100854.09
2023-05-01T11:16:38.789Z,100848.81
2023-05-01T11:19:05.407Z,100853.28
2023-05-01T11:21:32.528Z,100854.44
2023-05-01T11:24:01.860Z,100843.66
2023-05-01T11:26:31.219Z,100839.78
2023-05-01T11:28:59.770Z,100845.88
2023-05-01T11:31:26.865Z,100836.78
2023-05-01T11:33:56.015Z,100839.19
2023-05-01T11:36:25.372Z,100833.78
2023-05-01T11:38:52.524Z,100829.47
2023-05-01T11:41:22.382Z,100842.19
2023-05-01T11:43:49.689Z,100837.34
2023-05-01T11:46:23.361Z,100838.50
2023-05-01T11:48:52.783Z,100840.44
2023-05-01T11:51:19.533Z,100829.41
2023-05-01T11:53:58.050Z,100832.06
2023-05-01T11:56:27.004Z,100831.72
2023-05-01T11:58:54.634Z,100823.31
2023-05-01T12:01:24.749Z,100826.50
2023-05-01T12:03:51.460Z,100825.03
2023-05-01T12:06:18.082Z,100824.22
2023-05-01T12:08:47.578Z,100815.94
2023-05-01T12:11:14.328Z,100808.28
2023-05-01T12:13:41.384Z,100808.72
2023-05-01T12:16:08.400Z,100809.44
2023-05-01T12:18:35.103Z,100806.13
2023-05-01T12:21:01.626Z,100812.03
2023-05-01T12:23:35.824Z,100815.97
2023-05-01T12:26:15.550Z,100822.88
2023-05-01T12:29:03.985Z,100822.28
2023-05-01T12:31:31.269Z,100828.09
2023-05-01T12:34:02.391Z,100829.00
2023-05-01T12:36:30.232Z,100825.22
2023-05-01T12:39:15.266Z,100825.31
2023-05-01T12:41:53.952Z,100839.53
2023-05-01T12:44:21.303Z,100831.53
2023-05-01T12:46:54.147Z,100813.22
2023-05-01T12:49:24.846Z,100819.81
2023-05-01T12:51:54.483Z,100816.78
2023-05-01T12:54:31.092Z,100807.59
2023-05-01T12:57:11.366Z,100798.56
2023-05-01T12:59:39.074Z,100791.69
2023-05-01T13:02:10.558Z,100815.63
2023-05-01T13:04:37.497Z,100809.59
2023-05-01T13:07:11.540Z,100809.88
2023-05-01T13:09:38.066Z,100799.97
2023-05-01T13:12:05.309Z,100793.81
2023-05-01T13:14:38.542Z,100792.72
2023-05-01T13:17:10.419Z,100789.59
2023-05-01T13:19:37.290Z,100794.94
2023-05-01T13:22:03.830Z,100796.25
2023-05-01T13:24:42.336Z,100792.47
2023-05-01T13:27:12.790Z,100793.47
2023-05-01T13:29:40.837Z,100785.72
2023-05-01T13:32:10.202Z,100781.94
2023-05-01T13:34:36.832Z,100790.03
2023-05-01T13:37:03.462Z,100783.59
2023-05-01T13:39:30.094Z,100780.97
2023-05-01T13:41:56.731Z,100777.38
2023-05-01T13:44:23.316Z,100779.59
2023-05-01T13:46:50.122Z,100774.41
2023-05-01T13:49:20.655Z,100777.75
2023-05-01T13:51:47.260Z,100777.19
2023-05-01T13:54:13.924Z,100762.88
2023-05-01T13:56:41.707Z,100776.56
2023-05-01T13:59:09.026Z,100772.44
2023-05-01T14:01:42.041Z,100775.28
2023-05-01T14:04:09.201Z,100771.72
2023-05-01T14:06:36.615Z,100769.63
2023-05-01T14:09:03.934Z,100771.53
2023-05-01T14:11:30.558Z,100766.13
2023-05-01T14:13:58.956Z,100759.16
2023-05-01T14:16:28.675Z,100763.25
2023-05-01T14:18:55.704Z,100764.41
2023-05-01T14:21:23.334Z,100761.81
2023-05-01T14:23:54.633Z,100763.97
2023-05-01T14:26:22.454Z,100770.31
2023-05-01T14:28:49.029Z,100768.38
2023-05-01T14:31:17.344Z,100766.06
2023-05-01T14:33:44.121Z,100770.47
2023-05-01T14:36:11.998Z,100765.88
2023-05-01T14:38:39.394Z,100767.81
2023-05-01T14:41:06.021Z,100765.56
2023-05-01T14:43:36.769Z,100770.16
2023-05-01T14:46:06.297Z,100764.72
2023-05-01T14:48:36.418Z,100759.53
2023-05-01T14:51:09.981Z,100753.25
2023-05-01T14:53:38.343Z,100753.25
2023-05-01T14:56:05.040Z,100754.91
2023-05-01T14:58:31.537Z,100753.31
2023-05-01T15:00:58.021Z,100757.00
2023-05-01T15:03:24.624Z,100749.72
2023-05-01T15:05:51.249Z,100746.22
2023-05-01T15:08:19.510Z,100744.28
2023-05-01T15:10:48.875Z,100741.84
2023-05-01T15:13:15.571Z,100750.28
2023-05-01T15:15:42.181Z,100740.28
2023-05-01T15:18:08.711Z,100744.94
2023-05-01T15:20:35.268Z,100739.47
2023-05-01T15:23:04.205Z,100736.97
2023-05-01T15:25:30.745Z,100742.19
2023-05-01T15:27:57.384Z,100743.00
2023-05-01T15:30:23.961Z,100745.66
2023-05-01T15:32:50.641Z,100743.22
2023-05-01T15:35:17.670Z,100749.56
2023-05-01T15:37:44.268Z,100749.16
2023-05-01T15:40:18.402Z,100751.41
2023-05-01T15:42:53.274Z,100761.00
2023-05-01T15:45:20.170Z,100758.56
2023-05-01T15:47:46.840Z,100766.69
2023-05-01T15:50:18.633Z,100758.38
2023-05-01T15:52:45.619Z,100746.88
2023-05-01T15:55:12.246Z,100750.63
2023-05-01T15:57:38.792Z,100748.31
2023-05-01T16:00:05.697Z,100757.53
2023-05-01T16:02:41.166Z,100754.88
2023-05-01T16:05:09.334Z,100752.22
2023-05-01T16:07:36.099Z,100745.66
2023-05-01T16:10:03.087Z,100743.44
2023-05-01T16:12:30.360Z,100743.22
2023-05-01T16:14:56.943Z,100755.91
2023-05-01T16:17:23.566Z,100766.13
2023-05-01T16:19:50.095Z,100769.41
2023-05-01T16:22:17.008Z,100772.44
2023-05-01T16:24:46.135Z,100763.69
2023-05-01T16:27:12.798Z,100759.19
2023-05-01T16:29:39.417Z,100762.06
2023-05-01T16:32:06.115Z,100750.19
2023-05-01T16:34:32.748Z,100740.78
2023-05-01T16:36:59.340Z,100750.81
2023-05-01T16:39:25.956Z,100757.75
2023-05-01T16:41:53.883Z,100761.03
2023-05-01T16:44:28.821Z,100756.13
2023-05-01T16:46:56.277Z,100748.75
2023-05-01T16:49:23.764Z,100741.00
2023-05-01T16:51:50.408Z,100742.84
2023-05-01T16:54:17.201Z,100737.75
2023-05-01T16:56:43.785Z,100738.16
2023-05-01T16:59:10.297Z,100741.00
2023-05-01T17:01:44.968Z,100732.44
2023-05-01T17:04:21.989Z,100731.41
2023-05-01T17:06:51.847Z,100735.50
2023-05-01T17:09:18.566Z,100736.28
2023-05-01T17:11:47.224Z,100736.28
2023-05-01T17:14:13.761Z,100746.06
2023-05-01T17:16:40.360Z,100745.03
2023-05-01T17:19:07.048Z,100738.75
2023-05-01T17:21:33.558Z,100742.41
2023-05-01T17:24:00.116Z,100752.25
2023-05-01T17:26:26.729Z,100741.38
2023-05-01T17:28:53.251Z,100734.88
2023-05-01T17:31:21.193Z,100733.59
2023-05-01T17:33:57.042Z,100745.44
2023-05-01T17:36:36.757Z,100754.63
2023-05-01T17:39:15.868Z,100745.22
2023-05-01T17:41:56.680Z,100727.28
2023-05-01T17:44:23.552Z,100731.34
2023-05-01T17:46:50.545Z,100749.25
2023-05-01T17:49:17.126Z,100747.75
2023-05-01T17:51:43.594Z,100753.56
2023-05-01T17:54:10.066Z,100751.16
2023-05-01T17:56:36.813Z,100743.13
2023-05-01T17:59:06.461Z,100733.16
2023-05-01T18:01:33.131Z,100731.66
2023-05-01T18:03:59.802Z,100747.53
2023-05-01T18:06:26.449Z,100731.19
2023-05-01T18:08:56.220Z,100721.84
2023-05-01T18:11:22.782Z,100732.03
2023-05-01T18:13:49.359Z,100743.63
2023-05-01T18:16:16.035Z,100725.06
2023-05-01T18:18:42.710Z,100733.25
2023-05-01T18:21:11.532Z,100734.59
2023-05-01T18:23:38.724Z,100741.69
2023-05-01T18:26:07.151Z,100739.13
2023-05-01T18:28:34.707Z,100728.13
2023-05-01T18:31:01.249Z,100725.94
2023-05-01T18:33:37.083Z,100724.56
2023-05-01T18:36:11.574Z,100720.84
2023-05-01T18:38:46.440Z,100732.25
2023-05-01T18:41:13.929Z,100734.59
2023-05-01T18:43:40.644Z,100721.75
2023-05-01T18:46:10.368Z,100727.53
2023-05-01T18:48:37.621Z,100726.63
2023-05-01T18:51:09.002Z,100725.72
2023-05-01T18:53:36.134Z,100726.53
2023-05-01T18:56:02.696Z,100723.78
2023-05-01T18:58:29.214Z,100725.41
2023-05-01T19:00:55.792Z,100715.03
2023-05-01T19:03:30.571Z,100715.72
2023-05-01T19:05:57.340Z,100712.69
2023-05-01T19:08:23.942Z,100714.25
2023-05-01T19:10:50.444Z,100713.47
2023-05-01T19:13:17.068Z,100714.13
2023-05-01T19:15:44.026Z,100702.47
2023-05-01T19:18:20.086Z,100700.44
2023-05-01T19:20:46.723Z,100699.53
2023-05-01T19:23:13.319Z,100700.81
2023-05-01T19:25:39.857Z,100703.63
2023-05-01T19:28:06.418Z,100687.75
2023-05-01T19:30:32.955Z,100711.13
2023-05-01T19:32:59.557Z,100698.09
2023-05-01T19:35:26.464Z,100689.78
2023-05-01T19:37:56.843Z,100691.66
2023-05-01T19:40:24.598Z,100698.69
2023-05-01T19:42:51.514Z,100685.06
2023-05-01T19:45:18.183Z,100700.34
2023-05-01T19:47:45.719Z,100702.00
2023-05-01T19:50:12.418Z,100695.31
2023-05-01T19:52:39.032Z,100686.53
2023-05-01T19:55:05.735Z,100683.50
2023-05-01T19:57:32.592Z,100702.59
2023-05-01T19:59:59.470Z,100705.81
2023-05-01T20:02:26.310Z,100689.16
2023-05-01T20:04:53.051Z,100699.59
2023-05-01T20:07:19.812Z,100693.25
2023-05-01T20:09:46.480Z,100695.50
2023-05-01T20:12:13.123Z,100706.06
2023-05-01T20:14:39.801Z,100690.88
2023-05-01T20:17:06.459Z,100697.66
2023-05-01T20:19:33.439Z,100697.69
2023-05-01T20:21:59.983Z,100688.44
2023-05-01T20:24:26.526Z,100688.56
2023-05-01T20:26:53.024Z,100677.09
2023-05-01T20:29:20.732Z,100681.63
2023-05-01T20:31:48.667Z,100682.09
2023-05-01T20:34:19.711Z,100669.88
2023-05-01T20:36:46.381Z,100684.94
2023-05-01T20:39:18.362Z,100681.59
2023-05-01T20:41:45.046Z,100678.25
2023-05-01T20:44:21.645Z,100675.31
2023-05-01T20:46:56.197Z,100685.09
2023-05-01T20:49:22.989Z,100670.63
2023-05-01T20:51:49.475Z,100682.81
2023-05-01T20:54:16.063Z,100690.59
2023-05-01T20:56:42.562Z,100690.56
2023-05-01T20:59:09.286Z,100678.41
2023-05-01T21:01:42.265Z,100679.88
2023-05-01T21:04:09.070Z,100678.91
2023-05-01T21:06:35.772Z,100682.41
2023-05-01T21:09:05.722Z,100686.41
2023-05-01T21:11:34.910Z,100681.09
2023-05-01T21:14:01.485Z,100669.75
2023-05-01T21:16:35.711Z,100672.88
2023-05-01T21:19:11.527Z,100675.75
2023-05-01T21:21:46.858Z,100673.94
2023-05-01T21:24:19.140Z,100683.72
2023-05-01T21:26:45.790Z,100686.53
2023-05-01T21:29:12.482Z,100681.94
2023-05-01T21:31:39.127Z,100676.41
2023-05-01T21:34:06.323Z,100678.81
2023-05-01T21:36:32.982Z,100684.97
2023-05-01T21:39:02.408Z,100668.78
2023-05-01T21:41:28.970Z,100679.69
2023-05-01T21:43:55.468Z,100663.53
2023-05-01T21:46:22.020Z,100664.69
2023-05-01T21:48:51.472Z,100663.75
2023-05-01T21:51:18.157Z,100666.31
2023-05-01T21:53:44.637Z,100662.28
2023-05-01T21:56:11.344Z,100663.75
2023-05-01T21:58:40.887Z,100656.09
2023-05-01T22:01:07.519Z,100646.31
2023-05-01T22:03:34.581Z,100649.75
2023-05-01T22:06:01.236Z,100645.59
2023-05-01T22:08:28.070Z,100648.25
2023-05-01T22:10:54.568Z,100648.28
2023-05-01T22:13:21.089Z,100644.31
2023-05-01T22:15:47.662Z,100639.06
2023-05-01T22:18:14.490Z,100641.13
2023-05-01T22:20:41.014Z,100639.50
2023-05-01T22:23:07.499Z,100638.66
2023-05-01T22:25:40.795Z,100633.78
2023-05-01T22:28:17.705Z,100638.50
2023-05-01T22:30:45.627Z,100640.03
2023-05-01T22:33:21.436Z,100642.97
2023-05-01T22:35:48.072Z,100628.75
2023-05-01T22:38:14.692Z,100631.09
2023-05-01T22:40:41.251Z,100630.13
2023-05-01T22:43:10.202Z,100631.78
2023-05-01T22:45:36.753Z,100624.41
2023-05-01T22:48:03.350Z,100626.94
2023-05-01T22:50:29.882Z,100622.47
2023-05-01T22:52:56.570Z,100622.31
2023-05-01T22:55:28.476Z,100625.94
2023-05-01T22:57:55.032Z,100626.59
2023-05-01T23:00:24.671Z,100623.34
2023-05-01T23:02:51.489Z,100623.72
2023-05-01T23:05:18.244Z,100623.97
2023-05-01T23:07:52.049Z,100622.88
2023-05-01T23:10:18.862Z,100624.34
2023-05-01T23:12:45.482Z,100618.44
2023-05-01T23:15:13.186Z,100620.47
2023-05-01T23:17:42.568Z,100618.25
2023-05-01T23:20:12.758Z,100620.56
2023-05-01T23:22:39.631Z,100611.59
2023-05-01T23:25:14.045Z,100598.53
2023-05-01T23:27:41.224Z,100605.44
2023-05-01T23:30:08.301Z,100597.06
2023-05-01T23:32:35.238Z,100599.38
2023-05-01T23:35:15.079Z,100589.53
2023-05-01T23:37:41.810Z,100593.03
2023-05-01T23:40:08.590Z,100594.66
2023-05-01T23:42:35.953Z,100587.72
2023-05-01T23:45:02.750Z,100600.34
2023-05-01T23:47:29.703Z,100589.13
2023-05-01T23:49:56.578Z,100576.78
2023-05-01T23:52:23.166Z,100570.84
2023-05-01T23:55:00.554Z,100580.59
2023-05-01T23:57:28.181Z,100576.69
2023-05-01T23:59:54.687Z,100576.16
